Time,TemperatureF,DewpointF,PressureIn,WindDirection,WindDirectionDegrees,WindSpeedMPH,WindSpeedGustMPH,Humidity,HourlyPrecipIn,Conditions,Clouds,dailyrainin,SoftwareType,DateUTC
2015-01-25 00:03:00,49.1,36.6,30.02,WSW,256,1.0,1.0,62,0.00,,,0.01,Wunderground v.1.15,2015-01-25 06:03:00,
2015-01-25 00:09:00,48.9,36.9,30.01,WSW,256,0.0,1.0,63,0.00,,,0.00,Wunderground v.1.15,2015-01-25 06:09:00,
2015-01-25 00:15:00,48.9,36.9,30.01,WSW,256,0.0,1.0,63,0.00,,,0.00,Wunderground v.1.15,2015-01-25 06:15:00,
2015-01-25 00:20:00,49.1,36.6,30.01,WSW,256,0.0,0.0,62,0.00,,,0.00,Wunderground v.1.15,2015-01-25 06:20:00,
2015-01-25 00:26:00,49.2,36.7,30.01,WSW,256,0.0,0.0,62,0.00,,,0.00,Wunderground v.1.15,2015-01-25 06:26:00,
2015-01-25 00:32:00,49.2,37.1,30.01,WSW,256,0.0,0.0,63,0.00,,,0.00,Wunderground v.1.15,2015-01-25 06:32:00,
2015-01-25 00:38:00,49.2,36.7,30.00,WSW,256,0.0,0.0,62,0.00,,,0.00,Wunderground v.1.15,2015-01-25 06:38:00,
2015-01-25 00:44:00,49.2,36.7,30.00,WSW,256,0.0,0.0,62,0.00,,,0.00,Wunderground v.1.15,2015-01-25 06:44:00,
2015-01-25 00:49:00,49.5,36.6,30.00,WSW,256,0.0,2.0,61,0.00,,,0.00,Wunderground v.1.15,2015-01-25 06:49:00,
2015-01-25 00:55:00,49.9,36.6,30.00,WSW,258,1.0,2.0,60,0.00,,,0.00,Wunderground v.1.15,2015-01-25 06:55:00,
2015-01-25 01:00:00,50.2,36.4,30.00,WSW,258,1.0,1.0,59,0.00,,,0.00,Wunderground v.1.15,2015-01-25 07:00:00,
2015-01-25 01:06:00,50.2,36.8,29.99,WSW,258,0.0,2.0,60,0.00,,,0.00,Wunderground v.1.15,2015-01-25 07:06:00,
2015-01-25 01:12:00,50.1,36.7,29.99,WSW,258,0.0,0.0,60,0.00,,,0.00,Wunderground v.1.15,2015-01-25 07:12:00,
2015-01-25 01:17:00,50.1,36.7,29.99,WSW,258,0.0,0.0,60,0.00,,,0.00,Wunderground v.1.15,2015-01-25 07:17:00,
2015-01-25 01:23:00,50.1,36.7,29.99,WSW,258,0.0,2.0,60,0.00,,,0.00,Wunderground v.1.15,2015-01-25 07:23:00,
2015-01-25 01:29:00,50.1,36.3,29.99,WSW,258,0.0,2.0,59,0.00,,,0.00,Wunderground v.1.15,2015-01-25 07:29:00,
2015-01-25 01:35:00,50.1,36.3,29.98,WSW,258,0.0,0.0,59,0.00,,,0.00,Wunderground v.1.15,2015-01-25 07:35:00,
2015-01-25 01:40:00,50.1,36.3,29.98,WSW,258,0.0,0.0,59,0.00,,,0.00,Wunderground v.1.15,2015-01-25 07:40:00,
2015-01-25 01:46:00,49.8,36.5,29.98,WSW,258,0.0,0.0,60,0.00,,,0.00,Wunderground v.1.15,2015-01-25 07:46:00,
2015-01-25 01:52:00,49.6,36.3,29.98,WSW,258,0.0,0.0,60,0.00,,,0.00,Wunderground v.1.15,2015-01-25 07:52:00,
2015-01-25 01:58:00,49.5,36.2,29.98,WSW,258,0.0,0.0,60,0.00,,,0.00,Wunderground v.1.15,2015-01-25 07:58:00,
2015-01-25 02:04:00,49.5,36.6,29.98,WSW,258,0.0,0.0,61,0.00,,,0.00,Wunderground v.1.15,2015-01-25 08:04:00,
2015-01-25 02:09:00,48.9,36.9,29.98,WSW,258,0.0,0.0,63,0.00,,,0.00,Wunderground v.1.15,2015-01-25 08:09:00,
2015-01-25 02:15:00,48.2,37.0,29.98,WSW,258,0.0,0.0,65,0.00,,,0.00,Wunderground v.1.15,2015-01-25 08:15:00,
2015-01-25 02:20:00,47.7,37.3,29.98,WSW,258,0.0,0.0,67,0.00,,,0.00,Wunderground v.1.15,2015-01-25 08:20:00,
2015-01-25 02:26:00,47.1,37.4,29.98,WSW,258,0.0,0.0,69,0.00,,,0.00,Wunderground v.1.15,2015-01-25 08:26:00,
2015-01-25 02:32:00,46.7,37.4,29.98,WSW,258,0.0,1.0,70,0.00,,,0.00,Wunderground v.1.15,2015-01-25 08:32:00,
2015-01-25 02:38:00,46.7,37.4,29.98,WSW,258,0.0,2.0,70,0.00,,,0.00,Wunderground v.1.15,2015-01-25 08:38:00,
2015-01-25 02:44:00,47.0,37.0,29.98,WSW,258,0.0,0.0,68,0.00,,,0.00,Wunderground v.1.15,2015-01-25 08:44:00,
2015-01-25 02:50:00,47.3,36.9,29.98,WSW,258,0.0,0.0,67,0.00,,,0.00,Wunderground v.1.15,2015-01-25 08:50:00,
2015-01-25 02:56:00,47.6,36.4,29.98,WSW,258,0.0,1.0,65,0.00,,,0.00,Wunderground v.1.15,2015-01-25 08:56:00,
2015-01-25 03:01:00,48.2,36.2,29.98,West,264,0.0,0.0,63,0.00,,,0.00,Wunderground v.1.15,2015-01-25 09:01:00,
2015-01-25 03:07:00,48.8,35.9,29.97,West,264,0.0,1.0,61,0.00,,,0.00,Wunderground v.1.15,2015-01-25 09:07:00,
2015-01-25 03:13:00,48.5,36.5,29.97,West,264,0.0,0.0,63,0.00,,,0.00,Wunderground v.1.15,2015-01-25 09:13:00,
2015-01-25 03:19:00,47.9,36.3,29.97,West,264,0.0,0.0,64,0.00,,,0.00,Wunderground v.1.15,2015-01-25 09:19:00,
2015-01-25 03:25:00,47.9,35.9,29.98,West,264,0.0,1.0,63,0.00,,,0.00,Wunderground v.1.15,2015-01-25 09:25:00,
2015-01-25 03:30:00,48.0,35.6,29.98,West,264,0.0,0.0,62,0.00,,,0.00,Wunderground v.1.15,2015-01-25 09:30:00,
2015-01-25 03:36:00,48.2,35.8,29.98,West,264,0.0,2.0,62,0.00,,,0.00,Wunderground v.1.15,2015-01-25 09:36:00,
2015-01-25 03:42:00,48.5,35.7,29.98,West,264,0.0,1.0,61,0.00,,,0.00,Wunderground v.1.15,2015-01-25 09:42:00,
2015-01-25 03:48:00,48.3,35.9,29.98,West,264,0.0,1.0,62,0.00,,,0.00,Wunderground v.1.15,2015-01-25 09:48:00,
2015-01-25 03:53:00,46.8,35.6,29.97,West,264,0.0,0.0,65,0.00,,,0.00,Wunderground v.1.15,2015-01-25 09:53:00,
2015-01-25 03:59:00,46.5,35.7,29.97,West,265,0.0,0.0,66,0.00,,,0.00,Wunderground v.1.15,2015-01-25 09:59:00,
2015-01-25 04:05:00,46.0,35.7,29.97,West,265,0.0,0.0,67,0.00,,,0.00,Wunderground v.1.15,2015-01-25 10:05:00,
2015-01-25 04:10:00,45.4,35.8,29.97,West,265,0.0,0.0,69,0.00,,,0.00,Wunderground v.1.15,2015-01-25 10:10:00,
2015-01-25 04:16:00,45.5,35.5,29.97,West,265,0.0,0.0,68,0.00,,,0.00,Wunderground v.1.15,2015-01-25 10:16:00,
2015-01-25 04:22:00,46.1,35.4,29.97,West,268,1.0,2.0,66,0.00,,,0.00,Wunderground v.1.15,2015-01-25 10:22:00,
2015-01-25 04:28:00,46.5,35.4,29.97,West,268,1.0,3.0,65,0.00,,,0.00,Wunderground v.1.15,2015-01-25 10:28:00,
2015-01-25 04:34:00,46.8,35.3,29.97,West,275,1.0,4.0,64,0.00,,,0.00,Wunderground v.1.15,2015-01-25 10:34:00,
2015-01-25 04:40:00,47.0,35.0,29.97,WNW,291,1.0,2.0,63,0.00,,,0.00,Wunderground v.1.15,2015-01-25 10:40:00,
2015-01-25 04:46:00,46.8,34.9,29.97,WNW,291,1.0,2.0,63,0.00,,,0.00,Wunderground v.1.15,2015-01-25 10:46:00,
2015-01-25 04:51:00,45.8,34.7,29.96,WNW,291,0.0,1.0,65,0.00,,,0.00,Wunderground v.1.15,2015-01-25 10:51:00,
2015-01-25 04:57:00,44.5,35.0,29.96,WNW,291,0.0,1.0,69,0.00,,,0.00,Wunderground v.1.15,2015-01-25 10:57:00,
2015-01-25 05:03:00,43.8,35.0,29.96,WNW,289,0.0,0.0,71,0.00,,,0.00,Wunderground v.1.15,2015-01-25 11:03:00,
2015-01-25 05:09:00,43.6,34.8,29.96,WNW,289,0.0,0.0,71,0.00,,,0.00,Wunderground v.1.15,2015-01-25 11:09:00,
2015-01-25 05:15:00,43.5,34.7,29.96,WNW,289,0.0,0.0,71,0.00,,,0.00,Wunderground v.1.15,2015-01-25 11:15:00,
2015-01-25 05:20:00,43.3,34.9,29.96,WNW,289,0.0,0.0,72,0.00,,,0.00,Wunderground v.1.15,2015-01-25 11:20:00,
2015-01-25 05:26:00,43.6,34.5,29.96,WNW,291,1.0,3.0,70,0.00,,,0.00,Wunderground v.1.15,2015-01-25 11:26:00,
2015-01-25 05:32:00,44.5,34.2,29.96,WNW,291,1.0,2.0,67,0.00,,,0.00,Wunderground v.1.15,2015-01-25 11:32:00,
2015-01-25 05:37:00,45.1,34.0,29.96,WNW,291,1.0,2.0,65,0.00,,,0.00,Wunderground v.1.15,2015-01-25 11:37:00,
2015-01-25 05:43:00,45.4,33.9,29.96,WNW,291,0.0,1.0,64,0.00,,,0.00,Wunderground v.1.15,2015-01-25 11:43:00,
2015-01-25 05:49:00,45.5,33.6,29.96,WNW,291,0.0,1.0,63,0.00,,,0.00,Wunderground v.1.15,2015-01-25 11:49:00,
2015-01-25 05:55:00,45.4,33.9,29.96,WNW,291,0.0,2.0,64,0.00,,,0.00,Wunderground v.1.15,2015-01-25 11:55:00,
2015-01-25 06:00:00,45.2,33.3,29.96,WNW,291,1.0,1.0,63,0.00,,,0.00,Wunderground v.1.15,2015-01-25 12:00:00,
2015-01-25 06:06:00,45.5,32.8,29.97,WNW,291,1.0,1.0,61,0.00,,,0.00,Wunderground v.1.15,2015-01-25 12:06:00,
2015-01-25 06:12:00,45.7,32.6,29.97,WNW,291,0.0,0.0,60,0.00,,,0.00,Wunderground v.1.15,2015-01-25 12:12:00,
2015-01-25 06:18:00,45.7,33.0,29.97,WNW,291,0.0,0.0,61,0.00,,,0.00,Wunderground v.1.15,2015-01-25 12:18:00,
2015-01-25 06:24:00,45.4,33.1,29.97,WNW,291,0.0,0.0,62,0.00,,,0.00,Wunderground v.1.15,2015-01-25 12:24:00,
2015-01-25 06:29:00,45.2,32.9,29.97,WNW,291,0.0,1.0,62,0.00,,,0.00,Wunderground v.1.15,2015-01-25 12:29:00,
2015-01-25 06:35:00,45.4,32.7,29.98,WSW,243,2.0,4.0,61,0.00,,,0.00,Wunderground v.1.15,2015-01-25 12:35:00,
2015-01-25 06:40:00,45.7,32.6,29.98,WSW,244,3.0,3.0,60,0.00,,,0.00,Wunderground v.1.15,2015-01-25 12:40:00,
2015-01-25 06:46:00,46.0,32.5,29.98,WSW,244,2.0,4.0,59,0.00,,,0.00,Wunderground v.1.15,2015-01-25 12:46:00,
2015-01-25 06:52:00,46.1,32.6,29.97,WSW,247,2.0,3.0,59,0.00,,,0.00,Wunderground v.1.15,2015-01-25 12:52:00,
2015-01-25 06:58:00,46.1,32.1,29.97,WSW,250,1.0,3.0,58,0.00,,,0.00,Wunderground v.1.15,2015-01-25 12:58:00,
2015-01-25 07:04:00,46.2,32.2,29.97,West,277,2.0,4.0,58,0.00,,,0.00,Wunderground v.1.15,2015-01-25 13:04:00,
2015-01-25 07:10:00,46.1,32.1,29.98,WNW,301,3.0,6.0,58,0.00,,,0.00,Wunderground v.1.15,2015-01-25 13:10:00,
2015-01-25 07:16:00,46.1,32.1,29.98,West,275,3.0,6.0,58,0.00,,,0.00,Wunderground v.1.15,2015-01-25 13:16:00,
2015-01-25 07:21:00,46.2,31.8,30.00,WNW,299,3.0,4.0,57,0.00,,,0.00,Wunderground v.1.15,2015-01-25 13:21:00,
2015-01-25 07:27:00,46.2,31.4,30.00,West,281,2.0,4.0,56,0.00,,,0.00,Wunderground v.1.15,2015-01-25 13:27:00,
2015-01-25 07:33:00,46.1,31.3,30.00,West,260,3.0,3.0,56,0.00,,,0.00,Wunderground v.1.15,2015-01-25 13:33:00,
2015-01-25 07:39:00,46.0,31.6,30.00,West,260,2.0,3.0,57,0.00,,,0.00,Wunderground v.1.15,2015-01-25 13:39:00,
2015-01-25 07:45:00,45.8,31.4,30.00,West,263,2.0,4.0,57,0.00,,,0.00,Wunderground v.1.15,2015-01-25 13:45:00,
2015-01-25 07:50:00,45.8,31.4,30.00,West,261,2.0,3.0,57,0.00,,,0.00,Wunderground v.1.15,2015-01-25 13:50:00,
2015-01-25 07:56:00,46.0,31.2,30.00,West,263,2.0,3.0,56,0.00,,,0.00,Wunderground v.1.15,2015-01-25 13:56:00,
2015-01-25 08:01:00,46.2,31.4,30.00,West,263,2.0,2.0,56,0.00,,,0.00,Wunderground v.1.15,2015-01-25 14:01:00,
2015-01-25 08:07:00,46.5,31.2,30.00,West,277,2.0,3.0,55,0.00,,,0.00,Wunderground v.1.15,2015-01-25 14:07:00,
2015-01-25 08:13:00,46.8,31.5,30.00,West,277,1.0,3.0,55,0.00,,,0.00,Wunderground v.1.15,2015-01-25 14:13:00,
2015-01-25 08:19:00,47.1,31.7,30.00,West,281,2.0,3.0,55,0.00,,,0.00,Wunderground v.1.15,2015-01-25 14:19:00,
2015-01-25 08:25:00,47.6,31.8,30.00,West,275,3.0,6.0,54,0.00,,,0.00,Wunderground v.1.15,2015-01-25 14:25:00,
2015-01-25 08:30:00,48.0,31.7,30.00,West,268,2.0,2.0,53,0.00,,,0.00,Wunderground v.1.15,2015-01-25 14:30:00,
2015-01-25 08:36:00,48.6,32.2,30.00,SW,232,1.0,2.0,53,0.00,,,0.00,Wunderground v.1.15,2015-01-25 14:36:00,
2015-01-25 08:42:00,49.1,31.7,30.00,SW,232,1.0,3.0,51,0.00,,,0.00,Wunderground v.1.15,2015-01-25 14:42:00,
2015-01-25 08:48:00,49.5,31.6,30.00,WSW,251,2.0,5.0,50,0.00,,,0.00,Wunderground v.1.15,2015-01-25 14:48:00,
2015-01-25 08:54:00,49.8,31.9,30.01,WNW,302,2.0,6.0,50,0.00,,,0.00,Wunderground v.1.15,2015-01-25 14:54:00,
2015-01-25 09:00:00,50.4,32.4,30.01,WNW,289,3.0,5.0,50,0.00,,,0.00,Wunderground v.1.15,2015-01-25 15:00:00,
2015-01-25 09:06:00,51.3,32.3,30.00,WNW,298,3.0,7.0,48,0.00,,,0.00,Wunderground v.1.15,2015-01-25 15:06:00,
2015-01-25 09:12:00,52.3,32.1,30.00,West,263,3.0,5.0,46,0.00,,,0.00,Wunderground v.1.15,2015-01-25 15:12:00,
2015-01-25 09:18:00,53.1,32.3,30.00,WNW,301,2.0,5.0,45,0.00,,,0.00,Wunderground v.1.15,2015-01-25 15:18:00,
2015-01-25 09:24:00,53.6,32.2,30.01,NW,305,3.0,5.0,44,0.00,,,0.00,Wunderground v.1.15,2015-01-25 15:24:00,
2015-01-25 09:29:00,54.2,32.2,30.01,NW,312,4.0,7.0,43,0.00,,,0.00,Wunderground v.1.15,2015-01-25 15:29:00,
2015-01-25 09:35:00,54.7,32.0,30.01,NW,308,6.0,12.0,42,0.00,,,0.00,Wunderground v.1.15,2015-01-25 15:35:00,
2015-01-25 09:40:00,55.1,31.8,30.01,North,0,6.0,8.0,41,0.00,,,0.00,Wunderground v.1.15,2015-01-25 15:40:00,
2015-01-25 09:46:00,55.3,32.0,30.01,NNW,335,6.0,10.0,41,0.00,,,0.00,Wunderground v.1.15,2015-01-25 15:46:00,
2015-01-25 09:52:00,55.4,33.3,30.01,NW,309,7.0,8.0,43,0.00,,,0.00,Wunderground v.1.15,2015-01-25 15:52:00,
2015-01-25 09:58:00,55.7,33.5,30.01,NW,325,7.0,10.0,43,0.00,,,0.00,Wunderground v.1.15,2015-01-25 15:58:00,
2015-01-25 10:04:00,56.2,33.4,30.01,NNW,328,7.0,9.0,42,0.00,,,0.00,Wunderground v.1.15,2015-01-25 16:04:00,
2015-01-25 10:10:00,56.9,34.0,30.01,NW,304,6.0,6.0,42,0.00,,,0.00,Wunderground v.1.15,2015-01-25 16:10:00,
2015-01-25 10:16:00,57.6,34.1,30.01,North,0,6.0,11.0,41,0.00,,,0.00,Wunderground v.1.15,2015-01-25 16:16:00,
2015-01-25 10:22:00,58.3,34.7,30.02,North,0,6.0,9.0,41,0.00,,,0.00,Wunderground v.1.15,2015-01-25 16:22:00,
2015-01-25 10:28:00,59.0,34.7,30.02,North,1,6.0,9.0,40,0.00,,,0.00,Wunderground v.1.15,2015-01-25 16:28:00,
2015-01-25 10:34:00,59.6,35.2,30.02,North,354,6.0,7.0,40,0.00,,,0.00,Wunderground v.1.15,2015-01-25 16:34:00,
2015-01-25 10:40:00,59.9,34.9,30.01,North,8,7.0,7.0,39,0.00,,,0.00,Wunderground v.1.15,2015-01-25 16:40:00,
2015-01-25 10:46:00,60.4,35.9,30.01,NNW,346,6.0,9.0,40,0.00,,,0.00,Wunderground v.1.15,2015-01-25 16:46:00,
2015-01-25 10:52:00,60.9,36.4,30.03,NE,37,5.0,7.0,40,0.00,,,0.00,Wunderground v.1.15,2015-01-25 16:52:00,
2015-01-25 10:58:00,61.3,36.8,30.03,North,0,5.0,7.0,40,0.00,,,0.00,Wunderground v.1.15,2015-01-25 16:58:00,
2015-01-25 11:03:00,61.8,37.2,30.03,NE,40,6.0,7.0,40,0.00,,,0.00,Wunderground v.1.15,2015-01-25 17:03:00,
2015-01-25 11:09:00,62.1,37.5,30.02,NNE,30,7.0,10.0,40,0.00,,,0.00,Wunderground v.1.15,2015-01-25 17:09:00,
2015-01-25 11:15:00,62.9,38.2,30.02,NNW,343,6.0,7.0,40,0.00,,,0.00,Wunderground v.1.15,2015-01-25 17:15:00,
2015-01-25 11:20:00,63.4,38.6,30.02,North,359,5.0,5.0,40,0.00,,,0.00,Wunderground v.1.15,2015-01-25 17:20:00,
2015-01-25 11:26:00,64.0,38.5,30.02,NNW,333,5.0,7.0,39,0.00,,,0.00,Wunderground v.1.15,2015-01-25 17:26:00,
2015-01-25 11:32:00,64.2,38.0,30.02,NNE,21,6.0,10.0,38,0.00,,,0.00,Wunderground v.1.15,2015-01-25 17:32:00,
2015-01-25 11:38:00,64.3,37.5,30.02,North,0,8.0,13.0,37,0.00,,,0.00,Wunderground v.1.15,2015-01-25 17:38:00,
2015-01-25 11:44:00,64.7,37.8,30.02,ENE,64,8.0,13.0,37,0.00,,,0.00,Wunderground v.1.15,2015-01-25 17:44:00,
2015-01-25 11:50:00,64.8,38.6,30.03,NW,308,7.0,7.0,38,0.00,,,0.00,Wunderground v.1.15,2015-01-25 17:50:00,
2015-01-25 11:56:00,64.7,37.8,30.03,WNW,299,7.0,11.0,37,0.00,,,0.00,Wunderground v.1.15,2015-01-25 17:56:00,
2015-01-25 12:01:00,64.8,37.9,30.03,NNW,335,7.0,8.0,37,0.00,,,0.00,Wunderground v.1.15,2015-01-25 18:01:00,
2015-01-25 12:07:00,65.3,37.6,30.05,North,0,7.0,12.0,36,0.00,,,0.00,Wunderground v.1.15,2015-01-25 18:07:00,
2015-01-25 12:12:00,65.5,37.8,30.05,NNW,333,6.0,7.0,36,0.00,,,0.00,Wunderground v.1.15,2015-01-25 18:12:00,
2015-01-25 12:18:00,66.0,38.3,30.05,NNE,30,3.0,7.0,36,0.00,,,0.00,Wunderground v.1.15,2015-01-25 18:18:00,
2015-01-25 12:24:00,66.4,37.9,30.05,NW,313,3.0,7.0,35,0.00,,,0.00,Wunderground v.1.15,2015-01-25 18:24:00,
2015-01-25 12:30:00,66.3,38.5,30.05,North,6,5.0,7.0,36,0.00,,,0.00,Wunderground v.1.15,2015-01-25 18:30:00,
2015-01-25 12:36:00,66.4,38.6,30.05,WNW,302,4.0,7.0,36,0.00,,,0.00,Wunderground v.1.15,2015-01-25 18:36:00,
2015-01-25 12:42:00,66.9,37.6,30.05,NW,309,4.0,7.0,34,0.00,,,0.00,Wunderground v.1.15,2015-01-25 18:42:00,
2015-01-25 12:48:00,67.1,37.0,30.05,WNW,301,5.0,7.0,33,0.00,,,0.00,Wunderground v.1.15,2015-01-25 18:48:00,
2015-01-25 12:54:00,67.3,38.0,30.05,NNE,28,4.0,7.0,34,0.00,,,0.00,Wunderground v.1.15,2015-01-25 18:54:00,
2015-01-25 13:00:00,67.3,35.6,30.05,NE,47,3.0,3.0,31,0.00,,,0.00,Wunderground v.1.15,2015-01-25 19:00:00,
2015-01-25 13:06:00,67.1,36.2,30.04,NE,52,4.0,7.0,32,0.00,,,0.00,Wunderground v.1.15,2015-01-25 19:06:00,
2015-01-25 13:11:00,66.8,36.8,30.04,ENE,58,4.0,5.0,33,0.00,,,0.00,Wunderground v.1.15,2015-01-25 19:11:00,
2015-01-25 13:17:00,67.1,37.0,30.04,ENE,78,3.0,5.0,33,0.00,,,0.00,Wunderground v.1.15,2015-01-25 19:17:00,
2015-01-25 13:22:00,67.3,37.2,30.03,ENE,65,2.0,5.0,33,0.00,,,0.00,Wunderground v.1.15,2015-01-25 19:22:00,
2015-01-25 13:28:00,67.6,37.5,30.03,NW,325,2.0,5.0,33,0.00,,,0.00,Wunderground v.1.15,2015-01-25 19:28:00,
2015-01-25 13:34:00,67.8,38.4,30.03,NNW,333,2.0,2.0,34,0.00,,,0.00,Wunderground v.1.15,2015-01-25 19:34:00,
2015-01-25 13:40:00,68.3,37.3,30.02,NE,37,2.0,5.0,32,0.00,,,0.00,Wunderground v.1.15,2015-01-25 19:40:00,
2015-01-25 13:46:00,68.1,36.3,30.02,NNE,13,3.0,6.0,31,0.00,,,0.00,Wunderground v.1.15,2015-01-25 19:46:00,
2015-01-25 13:52:00,68.6,36.7,30.02,WNW,292,2.0,2.0,31,0.00,,,0.00,Wunderground v.1.15,2015-01-25 19:52:00,
2015-01-25 13:58:00,69.3,34.8,30.02,NNW,330,2.0,6.0,28,0.00,,,0.00,Wunderground v.1.15,2015-01-25 19:58:00,
2015-01-25 14:04:00,69.4,33.9,30.02,North,350,3.0,6.0,27,0.00,,,0.00,Wunderground v.1.15,2015-01-25 20:04:00,
2015-01-25 14:10:00,69.6,31.2,30.02,North,11,3.0,6.0,24,0.00,,,0.00,Wunderground v.1.15,2015-01-25 20:10:00,
2015-01-25 14:16:00,69.8,31.4,30.02,NE,47,3.0,7.0,24,0.00,,,0.00,Wunderground v.1.15,2015-01-25 20:16:00,
2015-01-25 14:22:00,70.4,31.9,30.02,North,352,2.0,7.0,24,0.00,,,0.00,Wunderground v.1.15,2015-01-25 20:22:00,
2015-01-25 14:27:00,70.9,34.3,30.02,NNE,20,2.0,7.0,26,0.00,,,0.00,Wunderground v.1.15,2015-01-25 20:27:00,
2015-01-25 14:33:00,70.9,33.3,30.02,North,349,2.0,6.0,25,0.00,,,0.00,Wunderground v.1.15,2015-01-25 20:33:00,
2015-01-25 14:39:00,70.9,34.3,30.01,NW,318,4.0,6.0,26,0.00,,,0.00,Wunderground v.1.15,2015-01-25 20:39:00,
2015-01-25 14:45:00,70.6,29.9,30.01,North,1,5.0,12.0,22,0.00,,,0.00,Wunderground v.1.15,2015-01-25 20:45:00,
2015-01-25 14:50:00,70.3,29.6,30.01,NE,40,7.0,7.0,22,0.00,,,0.00,Wunderground v.1.15,2015-01-25 20:50:00,
2015-01-25 14:56:00,70.4,29.7,30.01,NNE,17,6.0,13.0,22,0.00,,,0.00,Wunderground v.1.15,2015-01-25 20:56:00,
2015-01-25 15:01:00,70.1,30.6,30.01,NNE,14,7.0,7.0,23,0.00,,,0.00,Wunderground v.1.15,2015-01-25 21:01:00,
2015-01-25 15:07:00,70.1,32.6,30.01,North,359,7.0,8.0,25,0.00,,,0.00,Wunderground v.1.15,2015-01-25 21:07:00,
2015-01-25 15:13:00,69.9,31.4,30.01,NNW,346,7.0,11.0,24,0.00,,,0.00,Wunderground v.1.15,2015-01-25 21:13:00,
2015-01-25 15:19:00,70.1,30.6,30.01,NW,320,6.0,11.0,23,0.00,,,0.00,Wunderground v.1.15,2015-01-25 21:19:00,
2015-01-25 15:25:00,69.9,30.4,30.01,North,356,7.0,9.0,23,0.00,,,0.00,Wunderground v.1.15,2015-01-25 21:25:00,
2015-01-25 15:30:00,69.6,30.1,30.01,North,357,7.0,7.0,23,0.00,,,0.00,Wunderground v.1.15,2015-01-25 21:30:00,
2015-01-25 15:36:00,69.4,30.0,30.01,North,356,7.0,11.0,23,0.00,,,0.00,Wunderground v.1.15,2015-01-25 21:36:00,
2015-01-25 15:42:00,69.4,31.0,30.01,NNW,332,7.0,8.0,24,0.00,,,0.00,Wunderground v.1.15,2015-01-25 21:42:00,
2015-01-25 15:47:00,69.6,31.2,30.01,North,0,4.0,12.0,24,0.00,,,0.00,Wunderground v.1.15,2015-01-25 21:47:00,
2015-01-25 15:53:00,69.6,30.1,30.02,NNE,24,5.0,8.0,23,0.00,,,0.00,Wunderground v.1.15,2015-01-25 21:53:00,
2015-01-25 15:58:00,69.6,30.1,30.02,North,0,6.0,11.0,23,0.00,,,0.00,Wunderground v.1.15,2015-01-25 21:58:00,
2015-01-25 16:04:00,69.3,27.7,30.02,NE,35,6.0,10.0,21,0.00,,,0.00,Wunderground v.1.15,2015-01-25 22:04:00,
2015-01-25 16:09:00,69.1,27.5,30.03,NNE,28,6.0,10.0,21,0.00,,,0.00,Wunderground v.1.15,2015-01-25 22:09:00,
2015-01-25 16:15:00,68.8,27.2,30.03,NE,41,7.0,12.0,21,0.00,,,0.00,Wunderground v.1.15,2015-01-25 22:15:00,
2015-01-25 16:20:00,68.8,28.4,30.03,North,357,6.0,7.0,22,0.00,,,0.00,Wunderground v.1.15,2015-01-25 22:20:00,
2015-01-25 16:26:00,68.8,29.5,30.03,NNE,25,5.0,7.0,23,0.00,,,0.00,Wunderground v.1.15,2015-01-25 22:26:00,
2015-01-25 16:32:00,68.4,29.1,30.03,NNE,28,4.0,5.0,23,0.00,,,0.00,Wunderground v.1.15,2015-01-25 22:32:00,
2015-01-25 16:38:00,68.1,28.9,30.04,North,0,4.0,6.0,23,0.00,,,0.00,Wunderground v.1.15,2015-01-25 22:38:00,
2015-01-25 16:44:00,67.9,29.7,30.04,North,4,4.0,7.0,24,0.00,,,0.00,Wunderground v.1.15,2015-01-25 22:44:00,
2015-01-25 16:50:00,67.9,29.7,30.04,NNE,21,5.0,5.0,24,0.00,,,0.00,Wunderground v.1.15,2015-01-25 22:50:00,
2015-01-25 16:56:00,68.1,30.9,30.04,NNW,347,5.0,5.0,25,0.00,,,0.00,Wunderground v.1.15,2015-01-25 22:56:00,
2015-01-25 17:02:00,68.1,29.9,30.04,North,357,3.0,6.0,24,0.00,,,0.00,Wunderground v.1.15,2015-01-25 23:02:00,